Aeroporto :
LOGIN :

Iscrizione | Disclaimer

   EN    FR    IT 

 










Sommario :    VFR   VFR Marginale   IFR   IFR Intensivo   IFR Molto Intensivo
Visibilità : 
Base nubi : 
>= 8 km
>= 3000ft
5 / 8 km
1000 / 3000 ft
1500m / 5 km
500 / 1000 ft
800 / 1500m
200 / 500 ft
< 800m
< 200 ft
Simboli :   Temporali  Nebbia  Neve Forte  Precipitazioni Forti  Vento > 20 kt
SIGMETs :   Varie  Temporali  Ghiacco  Turbolenza  Onda orograficha  Ceneri Vulcaniche






- Altitudine del aeroporto : 228 ft
- Codice IATA : OPO


LPPR - Porto Fr. Sa Carneiro

ULTIMO METAR :
  • 272330Z 10004KT 9999 SCT007 10/10 Q1025

METARs OBSOLETI :
  • 272300Z 00000KT 9999 FEW005 BKN007 11/11 Q1026
  • 272230Z 00000KT 9999 FEW005 BKN007 12/12 Q1026
  • 272200Z VRB02KT 9999 FEW004 BKN006 12/12 Q1026
  • 272130Z 16004KT 9999 SCT004 SCT015 12/11 Q1026

TAF TAF LPPR
Valido dal 28 a 00 ore il 29 a 00 ore UTC


272300Z 2800/2824 10005KT 5000 BR SCT004 BKN008
PROB30
TEMPO 2800/2806 0400 BCFG BKN001
BECMG 2806/2809 VRB02KT 9999 NSW FEW015
BECMG 2812/2815 23010KT SCT020
BECMG 2821/2824 18015KT 5000 DZRA BR SCT004 BKN012



MetMap, La meteo Aeronautica in un colpo d'occhio ! - Copyright ORBIFLY Dicembre 2007 - Disclaimer

ORBIFLY MET'MAP TEAM :

Programmazione e sviluppo : Alexandra Zaïnal
Concezione : Baudouin d'Aumeries
Aiuto per la programmazione : Marc-Olivier Méhu
Supporto tecnico e logistico : Manuel Goepfert
Aiuto per la traduzione : Arnaldo La Scala

Contatto : metmap@orbifly.com




FONTI E CREDITI :

   NOAA